Charleston, SC

9:40 PM EST on February 22, 2017 (GMT -0500)
Downtown Charleston | | Change Station

Elev 23 ft 32.79 °N, 79.95 °W | Updated 8 seconds ago

Clear
Clear
65.3 °F
Feels Like 65.3 °F
N
4.5
Wind Variable Wind from NE
Gusts 7.4 mph

Today
High -- | Low -- °F
--% Chance of Precip.
Yesterday
High -- | Low -- °F
Precip. -- in
Pressure 29.89 in
Visibility 10.0 miles
Clouds Few 3100 ft
Dew Point 61 °F
Humidity 85%
Rainfall 0.02 in
Snow Depth Not available.
6:55 AM 6:11 PM
Waning Crescent, 13% visible
METAR KJZI 230235Z AUTO 05007KT 10SM FEW031 19/16 A2989 RMK AO2
Pressure 29.89 in
Visibility 10.0 miles
Clouds Few 3100 ft
Dew Point 61 °F
Humidity 85%
Rainfall 0.02 in
Snow Depth Not available.
6:55 AM 6:11 PM
Waning Crescent, 13% visible
METAR KJZI 230235Z AUTO 05007KT 10SM FEW031 19/16 A2989 RMK AO2

Get Your Daily Forecast Email!

Thanks for signing up!

Be on the lookout for a verification email in your inbox.

You'll start receiving the daily forecast at 8 AM.

×

10-Day Weather Forecast

Almanac

Astronomy

Feb. 22, 2017 Rise Set
Actual Time
Civil Twilight
Nautical Twilight
Astronomical Twilight
Moon
Length of Visible Light
Length of Day
Tomorrow will be .
, % of the Moon is Illuminated

Today's Extremes

State Highs State Lows

Community

WunderPhotos

Upload Photos

1,962,540 photos uploaded!

WunderBlog® & News

Nearby

Air Quality

  Air Quality AQ Index Pollutant
Not available.

Snow Depth

Station Depth Elevation

Earthquake Activity

City Distance Mag. Time & Date
Minimum magnitude displayed is 2.5.

Coastal Water Temperatures

Place Temperature

Stations

Nearby Weather Stations

Station Location Temp. Windchill Dew Point Humidity Wind Precip. Elev Updated Type
                   

Watches & Warnings

There are currently no watches in effect.